Time;durP1;ratioP1;P1;durP2;ratioP2;P2;SDS_P1;SDS_P2;PMS_P1;PMS_P2;Temp;Humidity;BMP_temperature;BMP_pressure;BME280_temperature;BME280_humidity;BME280_pressure;Samples;Min_cycle;Max_cycle;Signal;HPM_P1;HPM_P2
2022/07/28 00:01:36;;;;;;;7.45;5.95;;;;;;;25.25;49.27;94518.97;4217380;28;20645;-49
2022/07/28 00:03:38;;;;;;;8.77;5.93;;;;;;;25.18;49.27;94521.00;4215593;28;20050;-47
2022/07/28 00:05:40;;;;;;;9.45;6.90;;;;;;;25.12;49.77;94524.69;4211816;28;20428;-49
2022/07/28 00:07:42;;;;;;;7.57;6.78;;;;;;;24.94;50.39;94523.19;4208605;28;20417;-47
2022/07/28 00:09:44;;;;;;;9.88;6.28;;;;;;;24.92;50.60;94530.66;4209547;28;20050;-50
2022/07/28 00:11:45;;;;;;;9.52;6.82;;;;;;;24.92;50.78;94533.34;4217785;28;20055;-47
2022/07/28 00:13:55;;;;;;;8.32;6.47;;;;;;;24.84;52.12;94547.19;4215414;28;20643;-47
2022/07/28 00:15:57;;;;;;;8.73;6.20;;;;;;;24.71;53.77;94557.22;4210972;28;20586;-49
2022/07/28 00:17:59;;;;;;;7.55;6.47;;;;;;;24.69;54.44;94559.38;4209143;28;20070;-46
2022/07/28 00:20:01;;;;;;;9.35;7.65;;;;;;;24.65;55.00;94577.00;4218552;28;20055;-49
2022/07/28 00:22:03;;;;;;;9.35;7.65;;;;;;;24.51;57.53;94573.06;4222867;28;20043;-48
2022/07/28 00:24:05;;;;;;;10.73;7.55;;;;;;;24.31;59.13;94566.38;4219917;28;20058;-47
2022/07/28 00:26:08;;;;;;;10.07;7.47;;;;;;;24.18;58.59;94539.13;4217082;28;20048;-49
2022/07/28 00:28:09;;;;;;;19.00;8.57;;;;;;;23.67;62.69;94532.00;4218827;28;20047;-48
2022/07/28 00:30:11;;;;;;;14.98;9.18;;;;;;;22.78;67.44;94519.28;4227097;28;20043;-49
2022/07/28 00:32:13;;;;;;;14.68;8.88;;;;;;;22.19;68.87;94516.78;4225980;28;20047;-49
2022/07/28 00:34:15;;;;;;;13.00;9.20;;;;;;;21.96;69.21;94519.47;4221297;28;20089;-48
2022/07/28 00:36:17;;;;;;;12.98;9.20;;;;;;;21.81;69.57;94515.47;4221335;28;20108;-51
2022/07/28 00:38:25;;;;;;;13.48;9.55;;;;;;;21.74;69.81;94500.63;4222256;28;20541;-49
2022/07/28 00:42:47;;;;;;;13.75;9.50;;;;;;;21.73;69.88;94501.66;4212449;28;20585;-51
2022/07/28 00:44:49;;;;;;;13.30;9.23;;;;;;;21.69;70.16;94506.66;4214689;28;20079;-54
2022/07/28 00:46:50;;;;;;;10.75;8.93;;;;;;;21.88;69.98;94518.81;4216570;28;20112;-48
2022/07/28 00:48:53;;;;;;;12.13;9.57;;;;;;;22.22;69.94;94536.81;4230055;28;20055;-49
2022/07/28 00:50:55;;;;;;;15.00;9.27;;;;;;;22.48;69.40;94556.91;4219227;28;20080;-53
2022/07/28 00:52:57;;;;;;;11.23;8.98;;;;;;;22.69;68.51;94552.75;4225496;28;20633;-51
2022/07/28 00:54:59;;;;;;;18.27;9.40;;;;;;;22.84;67.48;94553.06;4224688;27;20173;-52
2022/07/28 00:57:01;;;;;;;15.75;9.05;;;;;;;22.91;67.23;94547.56;4214360;28;20054;-48
2022/07/28 00:59:03;;;;;;;10.27;8.52;;;;;;;23.01;66.87;94557.63;4224007;28;20146;-50
2022/07/28 01:01:10;;;;;;;10.88;8.30;;;;;;;23.13;66.33;94560.25;4221123;28;20052;-51
2022/07/28 01:03:12;;;;;;;11.23;8.15;;;;;;;23.25;65.69;94566.34;4228737;28;20477;-49
2022/07/28 01:05:14;;;;;;;10.52;8.93;;;;;;;23.35;65.92;94569.19;4213466;28;20439;-50
2022/07/28 01:07:26;;;;;;;12.80;8.57;;;;;;;23.45;65.53;94564.00;4211490;28;20128;-58
2022/07/28 01:09:28;;;;;;;11.63;8.60;;;;;;;23.51;65.89;94571.06;4219293;28;20152;-60
2022/07/28 01:11:34;;;;;;;12.82;8.18;;;;;;;23.62;65.20;94580.06;4228864;28;20047;-60
2022/07/28 01:14:07;;;;;;;9.93;8.27;;;;;;;23.68;64.89;94578.25;4212704;28;20055;-59
2022/07/28 01:16:09;;;;;;;10.65;7.90;;;;;;;23.75;64.02;94578.94;4214622;28;20150;-58
2022/07/28 01:18:19;;;;;;;10.50;8.20;;;;;;;23.79;63.76;94573.91;4212167;28;20117;-58
2022/07/28 01:20:35;;;;;;;11.50;8.45;;;;;;;23.75;63.97;94570.91;4211370;28;20048;-59
2022/07/28 01:22:40;;;;;;;9.90;8.50;;;;;;;23.76;64.33;94558.38;4211612;28;20052;-60
2022/07/28 01:24:50;;;;;;;10.43;8.20;;;;;;;23.77;64.03;94549.28;4210847;28;20106;-59
2022/07/28 01:27:10;;;;;;;11.48;8.52;;;;;;;23.76;64.29;94542.31;4222681;28;20067;-59
2022/07/28 01:29:31;;;;;;;9.13;8.18;;;;;;;23.80;63.63;94549.59;4223665;28;20044;-50
2022/07/28 01:31:57;;;;;;;10.15;8.93;;;;;;;23.86;64.29;94547.81;4227968;28;20131;-48
2022/07/28 01:34:04;;;;;;;10.45;8.00;;;;;;;23.86;64.37;94531.78;4218899;27;20462;-46
2022/07/28 01:36:13;;;;;;;11.35;8.65;;;;;;;23.86;64.96;94539.81;4228446;28;20047;-46
2022/07/28 01:38:16;;;;;;;10.77;8.98;;;;;;;23.85;64.17;94540.84;4215549;28;20182;-50
2022/07/28 01:40:22;;;;;;;9.48;8.50;;;;;;;23.81;64.09;94540.53;4213668;28;20582;-50
2022/07/28 01:42:27;;;;;;;9.82;8.82;;;;;;;23.82;63.77;94538.66;4216960;28;20048;-52
2022/07/28 01:44:28;;;;;;;9.55;8.55;;;;;;;23.82;64.33;94541.34;4210276;28;20052;-48
2022/07/28 01:46:31;;;;;;;8.50;7.63;;;;;;;23.76;64.17;94540.44;4221513;28;20048;-47
2022/07/28 01:48:33;;;;;;;10.63;7.97;;;;;;;23.73;64.45;94537.44;4213786;28;20529;-50
2022/07/28 01:50:36;;;;;;;11.27;8.18;;;;;;;23.73;63.73;94538.25;4212203;28;20052;-48
2022/07/28 01:52:40;;;;;;;12.18;8.15;;;;;;;23.63;64.73;94538.88;4210725;28;20494;-52
2022/07/28 01:54:42;;;;;;;9.25;8.15;;;;;;;23.56;64.80;94534.78;4209211;28;20060;-48
2022/07/28 01:56:45;;;;;;;9.48;8.45;;;;;;;23.47;65.24;94535.19;4210060;28;20048;-49
2022/07/28 01:58:48;;;;;;;13.02;8.63;;;;;;;23.41;65.41;94535.34;4218804;28;20067;-47
2022/07/28 02:00:50;;;;;;;11.95;9.10;;;;;;;23.38;65.14;94536.66;4217122;28;20105;-46
2022/07/28 02:02:53;;;;;;;11.02;8.77;;;;;;;23.38;64.34;94542.00;4209170;28;20103;-48
2022/07/28 02:04:56;;;;;;;10.47;8.40;;;;;;;23.27;64.85;94538.34;4209152;28;20056;-50
2022/07/28 02:06:58;;;;;;;10.10;8.75;;;;;;;23.17;64.52;94550.72;4208790;28;20056;-49
2022/07/28 02:09:02;;;;;;;9.23;7.95;;;;;;;23.16;65.24;94549.88;4216246;28;20085;-49
2022/07/28 02:13:24;;;;;;;11.85;8.75;;;;;;;22.94;64.56;94547.06;4210506;28;20402;-51
2022/07/28 02:15:28;;;;;;;12.37;8.57;;;;;;;22.90;65.31;94546.72;4215906;28;20051;-52
2022/07/28 02:17:30;;;;;;;9.30;8.38;;;;;;;22.95;65.00;94553.22;4215845;28;20424;-51
2022/07/28 02:19:33;;;;;;;10.70;8.63;;;;;;;22.86;64.96;94561.59;4226030;28;20053;-51
2022/07/28 02:21:35;;;;;;;11.80;9.73;;;;;;;22.80;64.95;94556.41;4212982;28;20051;-51
2022/07/28 02:23:38;;;;;;;11.18;9.20;;;;;;;22.85;65.16;94554.66;4221214;28;20157;-48
2022/07/28 02:25:40;;;;;;;12.67;9.73;;;;;;;22.85;65.16;94552.00;4221350;28;20055;-51
2022/07/28 02:28:01;;;;;;;12.32;9.70;;;;;;;22.57;66.47;94563.47;4211510;28;20478;-47
2022/07/28 02:30:15;;;;;;;11.15;9.95;;;;;;;21.82;69.50;94548.25;4217918;28;20040;-47
2022/07/28 02:32:48;;;;;;;15.40;10.32;;;;;;;21.11;72.53;94553.47;4223769;28;20642;-49
2022/07/28 02:34:51;;;;;;;15.07;10.85;;;;;;;21.07;72.91;94561.09;4226653;28;20126;-51
2022/07/28 02:36:56;;;;;;;13.80;10.30;;;;;;;20.95;73.64;94554.13;4216492;28;20060;-51
2022/07/28 02:39:06;;;;;;;11.70;9.75;;;;;;;21.12;72.69;94559.63;4208854;28;20060;-50
2022/07/28 02:41:27;;;;;;;11.35;10.18;;;;;;;21.39;72.58;94560.81;4214383;28;20044;-54
2022/07/28 02:43:30;;;;;;;12.93;10.20;;;;;;;21.70;70.86;94553.56;4209904;28;20047;-50
2022/07/28 02:45:52;;;;;;;11.07;9.30;;;;;;;21.75;69.74;94551.03;4216681;28;20135;-52
2022/07/28 02:48:04;;;;;;;10.35;9.23;;;;;;;21.91;69.68;94554.84;4214386;28;20138;-48
2022/07/28 02:50:07;;;;;;;10.02;9.00;;;;;;;22.11;69.07;94557.16;4217122;28;20048;-52
2022/07/28 02:52:10;;;;;;;9.43;8.43;;;;;;;22.26;67.72;94557.53;4207956;28;20097;-51
2022/07/28 02:54:12;;;;;;;11.32;9.40;;;;;;;22.40;67.56;94563.41;4209913;28;20047;-53
2022/07/28 02:56:16;;;;;;;12.43;9.37;;;;;;;22.42;67.58;94566.66;4208185;28;20056;-53
2022/07/28 02:58:19;;;;;;;;;;;;;;;22.53;67.09;94573.00;4215183;28;20035;-53
2022/07/28 03:00:21;;;;;;;12.27;10.18;;;;;;;22.56;66.90;94566.38;4224752;28;20406;-52
2022/07/28 03:02:23;;;;;;;11.40;9.85;;;;;;;22.59;67.18;94566.72;4215700;28;20367;-50
2022/07/28 03:06:46;;;;;;;14.60;9.18;;;;;;;22.76;66.31;94565.94;4224473;28;20055;-52
2022/07/28 03:08:51;;;;;;;10.43;8.50;;;;;;;22.85;66.60;94565.34;4217167;28;20055;-50
2022/07/28 03:11:10;;;;;;;10.93;9.27;;;;;;;22.95;67.09;94564.72;4210352;28;20578;-50
2022/07/28 03:13:13;;;;;;;10.70;9.45;;;;;;;23.08;66.90;94563.63;4221724;28;20055;-49
2022/07/28 03:15:15;;;;;;;12.60;10.27;;;;;;;23.15;67.25;94558.16;4208786;28;20048;-51
2022/07/28 03:17:17;;;;;;;9.52;8.50;;;;;;;23.17;67.04;94554.19;4220009;28;20078;-49
2022/07/28 03:19:19;;;;;;;11.43;10.20;;;;;;;23.23;66.64;94549.72;4215340;28;20048;-49
2022/07/28 03:21:21;;;;;;;10.63;9.43;;;;;;;23.24;66.71;94557.50;4223177;28;20384;-48
2022/07/28 03:23:27;;;;;;;11.05;9.02;;;;;;;23.25;66.37;94553.81;4220583;28;20093;-47
2022/07/28 03:25:43;;;;;;;11.32;9.73;;;;;;;23.22;67.11;94553.47;4219318;28;20121;-48
2022/07/28 03:27:47;;;;;;;10.40;8.98;;;;;;;23.23;67.16;94549.72;4210117;28;20052;-49
2022/07/28 03:30:00;;;;;;;11.15;9.18;;;;;;;23.23;67.29;94549.72;4218483;28;20104;-52
2022/07/28 03:32:05;;;;;;;13.15;9.70;;;;;;;23.19;67.69;94543.25;4224600;28;20048;-48
2022/07/28 03:34:10;;;;;;;11.35;9.80;;;;;;;23.14;68.04;94545.84;4224819;27;20165;-48
2022/07/28 03:36:15;;;;;;;13.38;9.65;;;;;;;23.10;68.37;94550.84;4212250;28;20144;-53
2022/07/28 03:38:22;;;;;;;14.27;10.48;;;;;;;23.04;68.50;94546.50;4224439;28;20043;-51
2022/07/28 03:40:28;;;;;;;12.95;10.63;;;;;;;22.91;69.24;94523.53;4221462;28;20110;-53
2022/07/28 03:42:29;;;;;;;12.10;10.07;;;;;;;22.88;69.52;94532.81;4208430;28;20391;-54
2022/07/28 03:44:31;;;;;;;12.60;10.20;;;;;;;22.87;69.97;94520.50;4208624;28;20044;-50
2022/07/28 03:46:34;;;;;;;15.32;10.40;;;;;;;22.90;68.95;94530.69;4209896;28;20452;-49
2022/07/28 03:48:36;;;;;;;16.27;10.63;;;;;;;22.93;68.69;94534.78;4225176;28;20051;-46
2022/07/28 03:50:38;;;;;;;12.35;10.60;;;;;;;22.88;68.50;94516.78;4213304;28;20112;-49
2022/07/28 03:52:39;;;;;;;12.85;9.77;;;;;;;22.83;69.11;94514.03;4209078;28;20123;-46
2022/07/28 03:54:41;;;;;;;11.50;10.30;;;;;;;22.85;69.40;94509.25;4220649;28;20051;-48
2022/07/28 03:56:43;;;;;;;11.35;10.23;;;;;;;22.87;69.02;94501.81;4215942;28;20052;-49
2022/07/28 03:58:45;;;;;;;12.27;10.27;;;;;;;22.92;68.82;94492.28;4216071;28;20044;-59
2022/07/28 04:00:48;;;;;;;17.27;10.25;;;;;;;22.91;69.30;94486.13;4221781;28;20047;-57
2022/07/28 04:02:50;;;;;;;13.32;10.68;;;;;;;22.90;68.80;94485.28;4209297;28;20048;-59
2022/07/28 04:04:52;;;;;;;11.57;10.38;;;;;;;22.87;68.41;94493.00;4225138;28;20075;-58
2022/07/28 04:06:53;;;;;;;11.43;10.15;;;;;;;22.87;68.12;94480.44;4218065;28;20059;-59
2022/07/28 04:08:56;;;;;;;12.50;11.10;;;;;;;22.80;68.43;94495.81;4218073;28;20055;-59
2022/07/28 04:10:58;;;;;;;11.55;10.35;;;;;;;22.38;68.59;94500.63;4226348;28;20323;-60
2022/07/28 04:12:59;;;;;;;13.75;9.52;;;;;;;21.84;70.07;94500.84;4224506;28;20051;-60
2022/07/28 04:15:01;;;;;;;13.40;10.35;;;;;;;21.26;72.26;94510.44;4221528;28;20468;-59
2022/07/28 04:17:03;;;;;;;15.27;11.00;;;;;;;21.01;74.47;94502.63;4212037;28;20055;-60
2022/07/28 04:19:05;;;;;;;15.55;11.63;;;;;;;20.87;76.63;94496.69;4218089;28;20120;-60
2022/07/28 04:21:06;;;;;;;16.33;12.52;;;;;;;20.72;78.46;94485.66;4214290;28;20052;-60
2022/07/28 04:23:08;;;;;;;15.32;12.82;;;;;;;20.60;79.63;94490.94;4207521;28;20044;-61
2022/07/28 04:25:13;;;;;;;15.43;13.73;;;;;;;20.55;80.21;94498.75;4217404;28;20085;-60
2022/07/28 04:27:15;;;;;;;17.67;14.43;;;;;;;20.54;80.33;94513.09;4225726;28;20677;-59
2022/07/28 04:29:17;;;;;;;15.23;13.48;;;;;;;20.42;81.17;94537.00;4222992;28;20421;-59
2022/07/28 04:31:28;;;;;;;18.40;13.57;;;;;;;20.42;80.67;94543.13;4208080;28;20036;-61
2022/07/28 04:33:29;;;;;;;14.38;11.70;;;;;;;20.32;78.93;94555.31;4209068;28;20565;-61
2022/07/28 04:35:33;;;;;;;13.75;11.80;;;;;;;20.13;79.61;94565.16;4220409;28;20067;-59
2022/07/28 04:37:35;;;;;;;;;;;;;;;19.99;79.94;94573.28;4224667;28;20537;-59
2022/07/28 04:39:37;;;;;;;14.00;12.45;;;;;;;19.98;80.48;94576.97;4210897;28;19924;-59
2022/07/28 04:41:40;;;;;;;13.82;12.40;;;;;;;20.10;80.13;94584.22;4212556;28;20367;-59
2022/07/28 04:43:42;;;;;;;14.02;12.70;;;;;;;20.22;79.50;94577.16;4213464;28;20135;-61
2022/07/28 04:45:45;;;;;;;14.43;12.52;;;;;;;20.27;79.82;94561.31;4214032;28;20055;-60
2022/07/28 04:47:55;;;;;;;13.90;12.52;;;;;;;20.44;79.22;94566.84;4225597;28;20770;-59
2022/07/28 04:49:56;;;;;;;14.23;12.73;;;;;;;20.66;78.00;94560.03;4225441;28;20188;-60
2022/07/28 04:51:58;;;;;;;14.85;12.75;;;;;;;20.91;77.51;94572.41;4214936;28;20485;-47
2022/07/28 04:54:00;;;;;;;14.73;12.73;;;;;;;21.15;76.52;94593.81;4207790;28;20056;-48
2022/07/28 04:56:02;;;;;;;12.77;11.50;;;;;;;21.37;75.38;94597.56;4208664;28;20417;-48
2022/07/28 04:58:04;;;;;;;13.77;11.60;;;;;;;21.45;74.19;94583.13;4225429;28;20531;-52
2022/07/28 05:00:12;;;;;;;13.90;12.40;;;;;;;21.48;74.12;94578.13;4226074;28;20104;-46
2022/07/28 05:02:14;;;;;;;12.23;11.02;;;;;;;21.63;73.62;94580.34;4215243;28;20051;-52
2022/07/28 05:04:17;;;;;;;16.88;12.25;;;;;;;21.75;72.70;94568.91;4209190;28;20127;-50
2022/07/28 05:06:19;;;;;;;12.52;11.23;;;;;;;21.84;72.14;94562.97;4207978;28;20488;-52
2022/07/28 05:08:22;;;;;;;13.45;12.05;;;;;;;21.90;71.91;94558.56;4206516;28;20067;-50
2022/07/28 05:10:27;;;;;;;12.90;11.52;;;;;;;21.81;71.75;94559.94;4208558;28;20036;-48
2022/07/28 05:12:28;;;;;;;14.77;12.43;;;;;;;21.64;72.95;94570.53;4207415;28;20059;-52
2022/07/28 05:14:30;;;;;;;14.73;12.63;;;;;;;21.67;73.38;94567.38;4208620;28;20071;-47
2022/07/28 05:16:32;;;;;;;13.77;12.45;;;;;;;21.64;72.93;94565.19;4208355;28;20581;-48
2022/07/28 05:18:34;;;;;;;14.20;12.73;;;;;;;21.75;73.20;94575.03;4216670;28;20467;-50
2022/07/28 05:20:36;;;;;;;13.50;12.10;;;;;;;21.82;73.08;94580.25;4214202;28;20599;-47
2022/07/28 05:22:45;;;;;;;13.65;11.88;;;;;;;21.91;72.57;94581.53;4211983;28;20483;-52
2022/07/28 05:24:47;;;;;;;17.92;12.38;;;;;;;22.05;72.40;94590.13;4225235;28;20055;-49
2022/07/28 05:26:49;;;;;;;13.70;11.02;;;;;;;22.19;71.42;94588.00;4211168;27;20113;-52
2022/07/28 05:28:50;;;;;;;12.23;10.93;;;;;;;22.35;70.23;94598.00;4222979;28;20471;-48
2022/07/28 05:30:52;;;;;;;12.23;10.98;;;;;;;22.43;69.93;94608.28;4214003;28;20123;-59
2022/07/28 05:32:58;;;;;;;13.60;11.10;;;;;;;22.39;70.04;94601.00;4224472;28;20063;-62
2022/07/28 05:34:59;;;;;;;13.75;11.70;;;;;;;22.40;69.72;94600.75;4215851;28;20558;-59
2022/07/28 05:37:01;;;;;;;14.05;11.98;;;;;;;22.49;69.94;94602.00;4219250;28;20071;-60
2022/07/28 05:39:03;;;;;;;13.05;11.55;;;;;;;22.60;69.12;94591.56;4221368;28;20470;-60
2022/07/28 05:41:05;;;;;;;15.32;11.70;;;;;;;22.65;68.61;94586.31;4223268;28;20092;-62
2022/07/28 05:43:07;;;;;;;15.25;11.15;;;;;;;22.75;68.68;94585.72;4220666;28;20579;-59
2022/07/28 05:45:09;;;;;;;13.82;12.25;;;;;;;22.84;67.84;94597.63;4211112;28;20063;-58
2022/07/28 05:47:17;;;;;;;12.60;11.18;;;;;;;22.93;67.59;94600.72;4211635;28;20116;-59
2022/07/28 05:49:20;;;;;;;14.50;11.00;;;;;;;23.01;67.64;94592.38;4225864;28;20446;-59
2022/07/28 05:51:22;;;;;;;13.65;11.40;;;;;;;23.11;66.91;94589.88;4228219;27;20043;-59
2022/07/28 05:53:24;;;;;;;11.77;10.57;;;;;;;23.20;66.87;94583.09;4218771;28;20044;-58
2022/07/28 05:55:26;;;;;;;13.73;11.48;;;;;;;23.30;67.44;94577.13;4221353;28;20117;-59
2022/07/28 05:57:27;;;;;;;12.38;11.13;;;;;;;23.43;66.41;94587.50;4215569;27;20055;-60
2022/07/28 05:59:29;;;;;;;12.82;11.10;;;;;;;23.50;64.76;94572.09;4224203;28;20101;-59
2022/07/28 06:01:35;;;;;;;13.70;11.27;;;;;;;23.58;65.06;94572.78;4210340;28;20055;-60
2022/07/28 06:03:37;;;;;;;12.63;10.63;;;;;;;23.65;65.00;94573.41;4210791;28;20082;-57
2022/07/28 06:05:43;;;;;;;13.82;10.52;;;;;;;23.75;64.98;94575.41;4221757;28;20386;-59
2022/07/28 06:08:04;;;;;;;12.43;10.88;;;;;;;23.87;64.95;94574.31;4212990;28;20054;-50
2022/07/28 06:10:07;;;;;;;12.25;10.50;;;;;;;23.94;65.19;94579.50;4213676;28;20051;-49
2022/07/28 06:12:09;;;;;;;12.07;10.63;;;;;;;24.03;64.13;94580.72;4226066;27;20495;-48
2022/07/28 06:14:10;;;;;;;12.80;11.48;;;;;;;24.08;63.11;94575.41;4225411;28;20055;-47
2022/07/28 06:16:13;;;;;;;13.95;12.07;;;;;;;24.12;61.80;94573.06;4213844;28;20075;-54
2022/07/28 06:18:15;;;;;;;17.35;11.82;;;;;;;24.10;62.32;94573.31;4221387;28;20132;-41
2022/07/28 06:20:20;;;;;;;12.30;10.93;;;;;;;24.15;62.10;94569.88;4221990;28;20454;-50
2022/07/28 06:22:22;;;;;;;14.85;11.38;;;;;;;24.22;61.90;94565.19;3507209;27;10000606;-48
2022/07/28 06:24:24;;;;;;;12.63;10.35;;;;;;;24.30;61.32;94558.56;4215132;27;20048;-49
2022/07/28 06:26:25;;;;;;;11.20;10.07;;;;;;;24.39;61.51;94569.66;4210196;28;20129;-59
2022/07/28 06:28:27;;;;;;;12.10;9.50;;;;;;;24.53;61.33;94574.44;4222375;28;20047;-60
2022/07/28 06:30:30;;;;;;;13.27;11.07;;;;;;;24.59;60.72;94587.91;4214328;27;20179;-60
2022/07/28 06:32:31;;;;;;;12.32;11.02;;;;;;;24.69;60.23;94593.38;4209556;28;20059;-59
2022/07/28 06:34:33;;;;;;;13.80;11.43;;;;;;;24.67;60.13;94592.81;4224990;28;20536;-61
2022/07/28 06:36:35;;;;;;;18.35;11.85;;;;;;;24.68;59.97;94581.03;4225930;28;20070;-59
2022/07/28 06:38:36;;;;;;;18.60;11.18;;;;;;;24.72;59.74;94582.97;4224407;28;20143;-60
2022/07/28 06:40:38;;;;;;;13.43;10.40;;;;;;;24.74;59.44;94580.03;4220125;28;20056;-61
2022/07/28 06:42:41;;;;;;;20.85;16.45;;;;;;;24.84;59.21;94582.00;4222259;28;20177;-59
2022/07/28 06:44:42;;;;;;;16.57;11.57;;;;;;;24.85;58.65;94576.41;4212229;28;20134;-60
2022/07/28 06:46:59;;;;;;;11.82;10.63;;;;;;;24.47;58.83;94579.94;4212018;28;20151;-53
2022/07/28 06:49:03;;;;;;;12.05;10.50;;;;;;;24.06;60.38;94579.41;4213219;28;20039;-50
2022/07/28 06:51:04;;;;;;;;;;;;;;;24.05;60.70;94583.16;4220218;28;20590;-49
2022/07/28 06:53:06;;;;;;;16.50;11.18;;;;;;;24.10;60.51;94575.97;4218562;28;20335;-50
2022/07/28 06:55:08;;;;;;;13.70;11.48;;;;;;;24.07;61.13;94576.50;4214808;28;20047;-52
2022/07/28 06:57:12;;;;;;;12.35;11.15;;;;;;;24.23;60.94;94566.00;3510828;27;10000236;-47
2022/07/28 06:59:14;;;;;;;;;;;;;;;24.13;60.41;94580.03;4220208;28;20097;-55
2022/07/28 07:01:16;;;;;;;14.27;11.93;;;;;;;23.80;61.30;94583.56;4217539;28;20320;-49
2022/07/28 07:03:18;;;;;;;14.27;12.77;;;;;;;23.90;61.49;94581.06;4220009;28;20100;-51
2022/07/28 07:05:20;;;;;;;13.98;11.77;;;;;;;24.12;61.18;94579.22;4208651;28;20111;-49
2022/07/28 07:07:22;;;;;;;13.27;11.68;;;;;;;24.36;59.79;94583.56;4219465;28;20048;-50
2022/07/28 07:09:24;;;;;;;15.65;12.25;;;;;;;24.56;59.38;94580.34;4221820;28;20048;-53
2022/07/28 07:11:26;;;;;;;15.35;12.50;;;;;;;24.36;60.21;94587.03;3860906;27;9999926;-50
2022/07/28 07:13:28;;;;;;;14.52;12.20;;;;;;;24.42;60.21;94583.38;4222309;28;20085;-48
2022/07/28 07:15:29;;;;;;;17.60;11.82;;;;;;;24.51;59.80;94581.09;4216619;28;20485;-50
2022/07/28 07:17:38;;;;;;;20.05;13.63;;;;;;;24.35;60.00;94576.56;4213146;28;20051;-50
2022/07/28 07:19:39;;;;;;;15.35;12.68;;;;;;;24.07;61.25;94581.00;4212991;28;20121;-49
2022/07/28 07:21:41;;;;;;;32.20;18.58;;;;;;;23.71;61.63;94589.28;3861097;27;10000490;-59
2022/07/28 07:23:43;;;;;;;15.10;13.45;;;;;;;23.49;61.76;94586.53;4209870;28;20112;-59
2022/07/28 07:25:45;;;;;;;12.65;11.20;;;;;;;23.26;61.63;94584.81;4210198;28;20151;-59
2022/07/28 07:27:47;;;;;;;17.35;12.93;;;;;;;23.34;62.98;94588.13;4222368;28;20105;-59
2022/07/28 07:29:49;;;;;;;16.85;13.73;;;;;;;23.51;62.21;94588.94;4227361;28;20108;-59
2022/07/28 07:31:50;;;;;;;13.93;12.30;;;;;;;23.79;62.16;94595.31;4227074;28;20446;-58
2022/07/28 07:33:54;;;;;;;16.63;12.80;;;;;;;24.05;61.08;94594.66;4224422;28;20109;-58
2022/07/28 07:35:55;;;;;;;14.65;12.88;;;;;;;24.33;60.42;94591.03;4225760;28;20051;-58
2022/07/28 07:37:57;;;;;;;15.13;12.65;;;;;;;24.60;59.89;94592.19;4212789;28;20127;-58
2022/07/28 07:40:00;;;;;;;14.60;13.10;;;;;;;24.49;59.31;94602.75;4225370;28;20043;-60
2022/07/28 07:42:02;;;;;;;19.05;14.48;;;;;;;24.25;60.72;94598.69;4210097;28;20488;-59
2022/07/28 07:44:03;;;;;;;15.73;13.93;;;;;;;24.32;60.75;94602.78;4209139;28;20096;-58
2022/07/28 07:46:06;;;;;;;21.60;14.63;;;;;;;24.36;59.97;94604.97;4222032;28;20112;-59
2022/07/28 07:48:08;;;;;;;14.82;12.57;;;;;;;24.50;59.77;94609.75;4214721;28;20358;-49
2022/07/28 07:50:09;;;;;;;14.30;11.90;;;;;;;24.76;59.13;94617.28;4225858;28;20052;-50
2022/07/28 07:52:12;;;;;;;16.63;12.27;;;;;;;25.07;58.49;94615.78;4212643;28;20048;-46
2022/07/28 07:54:13;;;;;;;14.07;12.02;;;;;;;25.17;57.38;94623.09;4209420;28;20052;-48
2022/07/28 07:56:17;;;;;;;16.05;12.45;;;;;;;25.26;57.02;94619.75;4210331;28;20040;-48
2022/07/28 07:58:18;;;;;;;14.15;12.75;;;;;;;25.32;57.39;94623.31;4209244;28;20048;-51
2022/07/28 08:00:20;;;;;;;14.07;12.48;;;;;;;25.42;56.87;94628.75;4216614;28;20047;-47
2022/07/28 08:02:30;;;;;;;16.63;12.10;;;;;;;25.58;56.46;94628.91;4214541;28;20103;-47
2022/07/28 08:04:31;;;;;;;14.82;12.30;;;;;;;25.68;55.92;94632.50;4210223;28;20124;-57
2022/07/28 08:06:39;;;;;;;14.60;12.57;;;;;;;25.19;57.33;94631.69;4212614;28;20054;-59
2022/07/28 08:08:41;;;;;;;14.07;11.80;;;;;;;24.89;57.28;94635.69;4220176;28;20503;-60
2022/07/28 08:10:49;;;;;;;14.02;12.13;;;;;;;24.69;58.14;94623.66;4221006;28;20056;-65
2022/07/28 08:12:51;;;;;;;13.87;12.00;;;;;;;24.56;58.95;94626.69;4214632;28;20048;-60
2022/07/28 08:14:53;;;;;;;16.77;12.60;;;;;;;24.51;59.25;94627.44;4214964;28;20128;-59
2022/07/28 08:16:57;;;;;;;14.40;12.65;;;;;;;24.69;58.82;94625.50;4210383;28;20056;-60
2022/07/28 08:18:59;;;;;;;14.75;12.63;;;;;;;24.80;58.63;94621.91;4216162;28;20497;-61
2022/07/28 08:21:00;;;;;;;14.82;12.20;;;;;;;24.95;58.64;94623.94;4217603;28;20141;-62
2022/07/28 08:23:02;;;;;;;13.55;12.18;;;;;;;25.02;58.44;94632.63;4213119;28;20055;-59
2022/07/28 08:25:05;;;;;;;20.85;18.58;;;;;;;24.96;58.19;94630.13;4218570;28;20047;-62
2022/07/28 08:27:06;;;;;;;16.23;14.02;;;;;;;24.76;58.50;94628.81;4216365;28;20044;-60
2022/07/28 08:29:08;;;;;;;14.05;12.48;;;;;;;24.71;58.57;94636.78;4223571;28;20096;-59
2022/07/28 08:31:10;;;;;;;14.50;12.32;;;;;;;24.75;58.79;94635.22;4225685;28;20047;-62
2022/07/28 08:33:12;;;;;;;16.13;11.70;;;;;;;24.81;58.56;94644.94;4225448;28;20116;-59
2022/07/28 08:35:14;;;;;;;15.05;13.13;;;;;;;24.90;58.17;94646.13;4216629;28;20074;-56
2022/07/28 08:37:34;;;;;;;13.88;11.73;;;;;;;24.86;57.85;94649.56;4206679;28;20074;-57
2022/07/28 08:39:36;;;;;;;15.65;10.98;;;;;;;24.87;57.82;94645.84;4212383;28;20501;-56
2022/07/28 08:41:44;;;;;;;12.15;10.73;;;;;;;24.92;57.33;94651.25;4209990;28;20056;-57
2022/07/28 08:43:46;;;;;;;17.92;11.20;;;;;;;25.01;57.27;94648.94;4220976;28;20048;-56
2022/07/28 08:45:51;;;;;;;13.68;12.05;;;;;;;25.12;57.56;94648.81;4214590;28;20536;-52
2022/07/28 08:47:59;;;;;;;13.45;10.32;;;;;;;25.25;56.86;94650.31;4208903;28;20052;-54
2022/07/28 08:50:13;;;;;;;15.75;11.30;;;;;;;25.35;57.01;94652.28;4212014;28;20078;-52
2022/07/28 08:52:18;;;;;;;14.10;10.65;;;;;;;25.41;55.93;94648.59;4221140;28;20063;-49
2022/07/28 08:54:24;;;;;;;15.43;11.55;;;;;;;25.43;56.28;94659.09;4199075;28;20044;-50
2022/07/28 08:56:27;;;;;;;14.73;12.05;;;;;;;25.50;55.91;94657.81;4225469;27;20390;-51
2022/07/28 08:58:30;;;;;;;13.25;11.45;;;;;;;25.52;55.76;94657.56;4220001;28;20048;-53
2022/07/28 09:00:32;;;;;;;14.02;11.43;;;;;;;25.51;55.88;94662.13;4212408;28;20117;-52
2022/07/28 09:02:39;;;;;;;16.23;12.38;;;;;;;25.54;55.85;94658.13;4217406;28;20047;-53
2022/07/28 09:04:43;;;;;;;12.30;11.05;;;;;;;25.50;55.72;94657.00;4216930;28;20120;-54
2022/07/28 09:06:46;;;;;;;13.23;11.85;;;;;;;25.49;56.23;94660.72;4217059;28;20288;-54
2022/07/28 09:08:48;;;;;;;12.55;11.25;;;;;;;25.57;57.07;94657.59;4224710;28;20055;-51
2022/07/28 09:10:50;;;;;;;12.95;11.65;;;;;;;25.70;56.15;94659.84;4215292;27;20082;-51
2022/07/28 09:12:52;;;;;;;14.35;12.15;;;;;;;25.81;56.09;94657.28;4219712;28;20105;-52
2022/07/28 09:14:53;;;;;;;13.73;12.32;;;;;;;25.76;55.84;94663.41;4211067;28;20413;-51
2022/07/28 09:17:00;;;;;;;14.30;11.85;;;;;;;25.59;55.73;94657.34;4218598;28;20055;-52
2022/07/28 09:19:02;;;;;;;19.58;12.98;;;;;;;25.50;55.75;94655.13;4219444;28;20123;-50
2022/07/28 09:21:04;;;;;;;14.23;12.52;;;;;;;25.59;55.99;94655.47;4217656;28;20047;-49
2022/07/28 09:23:07;;;;;;;14.77;11.43;;;;;;;25.58;55.85;94647.69;4215332;28;20043;-50
2022/07/28 09:25:29;;;;;;;13.18;11.85;;;;;;;25.65;57.27;94653.66;4211306;28;20048;-52
2022/07/28 09:27:43;;;;;;;15.13;12.88;;;;;;;25.67;56.99;94652.31;4213532;28;20439;-52
2022/07/28 09:29:48;;;;;;;15.20;13.55;;;;;;;25.69;55.95;94639.47;4222749;28;20539;-52
2022/07/28 09:31:50;;;;;;;14.10;12.35;;;;;;;25.66;55.63;94633.78;4219740;28;20111;-50
2022/07/28 09:34:04;;;;;;;13.95;12.38;;;;;;;25.65;55.90;94645.59;4215675;28;20138;-51
2022/07/28 09:36:13;;;;;;;15.30;12.13;;;;;;;25.71;56.25;94653.44;4218546;28;20056;-53
2022/07/28 09:38:15;;;;;;;15.13;12.65;;;;;;;25.78;56.72;94660.47;4217942;28;20047;-52
2022/07/28 09:40:18;;;;;;;15.30;13.38;;;;;;;25.84;56.88;94651.41;4211338;28;20048;-48
2022/07/28 09:42:23;;;;;;;15.82;14.13;;;;;;;25.85;56.36;94650.34;4215710;28;20127;-49